createdAt,value
2022-09-01T00:00:03.472Z,100.00
2022-09-01T00:02:34.663Z,100.00
2022-09-01T00:05:07.564Z,100.00
2022-09-01T00:07:36.478Z,100.00
2022-09-01T00:10:09.036Z,100.00
2022-09-01T00:12:38.047Z,100.00
2022-09-01T00:15:07.958Z,100.00
2022-09-01T00:17:36.372Z,100.00
2022-09-01T00:20:05.741Z,100.00
2022-09-01T00:22:34.673Z,100.00
2022-09-01T00:25:03.183Z,100.00
2022-09-01T00:27:32.792Z,100.00
2022-09-01T00:30:01.577Z,100.00
2022-09-01T00:32:30.753Z,100.00
2022-09-01T00:34:59.129Z,100.00
2022-09-01T00:37:27.474Z,100.00
2022-09-01T00:39:55.783Z,100.00
2022-09-01T00:42:24.827Z,100.00
2022-09-01T00:44:54.522Z,100.00
2022-09-01T00:47:23.163Z,100.00
2022-09-01T00:49:52.719Z,100.00
2022-09-01T00:52:26.769Z,100.00
2022-09-01T00:54:56.974Z,100.00
2022-09-01T00:57:25.322Z,100.00
2022-09-01T00:59:58.221Z,100.00
2022-09-01T01:02:26.745Z,100.00
2022-09-01T01:04:59.630Z,100.00
2022-09-01T01:07:28.668Z,100.00
2022-09-01T01:09:57.587Z,100.00
2022-09-01T01:12:28.181Z,100.00
2022-09-01T01:14:57.982Z,100.00
2022-09-01T01:17:26.421Z,100.00
2022-09-01T01:20:13.956Z,100.00
2022-09-01T01:23:05.775Z,100.00
2022-09-01T01:25:40.580Z,100.00
2022-09-01T01:28:13.679Z,100.00
2022-09-01T01:30:44.843Z,100.00
2022-09-01T01:33:13.294Z,100.00
2022-09-01T01:35:42.482Z,100.00
2022-09-01T01:38:11.424Z,100.00
2022-09-01T01:40:41.583Z,100.00
2022-09-01T01:43:12.627Z,100.00
2022-09-01T01:45:41.008Z,100.00
2022-09-01T01:48:10.676Z,100.00
2022-09-01T01:50:40.949Z,100.00
2022-09-01T01:53:12.355Z,100.00
2022-09-01T01:55:43.975Z,100.00
2022-09-01T01:58:15.077Z,100.00
2022-09-01T02:00:47.651Z,100.00
2022-09-01T02:03:19.177Z,100.00
2022-09-01T02:05:49.153Z,100.00
2022-09-01T02:08:22.854Z,100.00
2022-09-01T02:10:54.832Z,100.00
2022-09-01T02:13:26.595Z,100.00
2022-09-01T02:15:58.628Z,100.00
2022-09-01T02:18:30.094Z,100.00
2022-09-01T02:21:01.011Z,100.00
2022-09-01T02:23:30.288Z,100.00
2022-09-01T02:26:16.015Z,100.00
2022-09-01T02:28:55.556Z,100.00
2022-09-01T02:31:28.116Z,100.00
2022-09-01T02:33:57.744Z,100.00
2022-09-01T02:36:26.706Z,100.00
2022-09-01T02:38:56.823Z,100.00
2022-09-01T02:41:34.760Z,100.00
2022-09-01T02:44:05.882Z,100.00
2022-09-01T02:46:34.703Z,100.00
2022-09-01T02:49:04.645Z,100.00
2022-09-01T02:51:33.451Z,100.00
2022-09-01T02:54:02.147Z,100.00
2022-09-01T02:56:31.956Z,100.00
2022-09-01T02:59:00.309Z,100.00
2022-09-01T03:01:31.053Z,100.00
2022-09-01T03:04:02.659Z,100.00
2022-09-01T03:06:34.792Z,100.00
2022-09-01T03:09:04.833Z,100.00
2022-09-01T03:11:36.815Z,100.00
2022-09-01T03:14:05.372Z,100.00
2022-09-01T03:16:33.918Z,100.00
2022-09-01T03:19:04.047Z,100.00
2022-09-01T03:21:32.769Z,100.00
2022-09-01T03:24:02.250Z,100.00
2022-09-01T03:26:32.231Z,100.00
2022-09-01T03:29:02.019Z,100.00
2022-09-01T03:31:31.346Z,100.00
2022-09-01T03:34:03.445Z,100.00
2022-09-01T03:36:35.555Z,100.00
2022-09-01T03:39:03.942Z,100.00
2022-09-01T03:41:33.574Z,100.00
2022-09-01T03:44:03.566Z,100.00
2022-09-01T03:46:36.945Z,100.00
2022-09-01T03:49:08.269Z,100.00
2022-09-01T03:51:40.566Z,100.00
2022-09-01T03:54:10.229Z,100.00
2022-09-01T03:56:41.868Z,100.00
2022-09-01T03:59:17.850Z,100.00
2022-09-01T04:01:47.911Z,100.00
2022-09-01T04:04:17.286Z,100.00
2022-09-01T04:06:47.276Z,100.00
2022-09-01T04:09:16.271Z,100.00
2022-09-01T04:11:47.178Z,100.00
2022-09-01T04:14:18.529Z,100.00
2022-09-01T04:17:06.354Z,100.00
2022-09-01T04:19:37.350Z,100.00
2022-09-01T04:22:07.983Z,100.00
2022-09-01T04:24:46.968Z,100.00
2022-09-01T04:27:18.894Z,100.00
2022-09-01T04:29:48.841Z,100.00
2022-09-01T04:32:21.478Z,100.00
2022-09-01T04:34:53.311Z,100.00
2022-09-01T04:37:23.823Z,100.00
2022-09-01T04:39:57.557Z,100.00
2022-09-01T04:42:29.459Z,100.00
2022-09-01T04:45:05.075Z,100.00
2022-09-01T04:47:42.265Z,100.00
2022-09-01T04:50:17.470Z,100.00
2022-09-01T04:53:07.345Z,100.00
2022-09-01T04:55:43.706Z,100.00
2022-09-01T04:58:17.467Z,100.00
2022-09-01T05:00:52.108Z,100.00
2022-09-01T05:03:24.561Z,100.00
2022-09-01T05:06:01.325Z,100.00
2022-09-01T05:08:32.720Z,100.00
2022-09-01T05:11:07.919Z,100.00
2022-09-01T05:13:40.466Z,100.00
2022-09-01T05:16:13.334Z,100.00
2022-09-01T05:18:47.972Z,100.00
2022-09-01T05:21:20.005Z,100.00
2022-09-01T05:23:52.001Z,100.00
2022-09-01T05:26:24.157Z,100.00
2022-09-01T05:28:55.099Z,100.00
2022-09-01T05:31:28.272Z,100.00
2022-09-01T05:33:58.360Z,100.00
2022-09-01T05:36:27.015Z,100.00
2022-09-01T05:38:59.201Z,100.00
2022-09-01T05:41:28.651Z,100.00
2022-09-01T05:44:00.600Z,100.00
2022-09-01T05:46:31.474Z,100.00
2022-09-01T05:49:02.483Z,100.00
2022-09-01T05:51:44.465Z,100.00
2022-09-01T05:54:15.272Z,100.00
2022-09-01T05:56:45.151Z,100.00
2022-09-01T05:59:25.411Z,100.00
2022-09-01T06:02:01.050Z,100.00
2022-09-01T06:04:30.395Z,100.00
2022-09-01T06:07:09.376Z,100.00
2022-09-01T06:09:43.143Z,100.00
2022-09-01T06:12:18.088Z,100.00
2022-09-01T06:14:48.511Z,100.00
2022-09-01T06:17:25.195Z,100.00
2022-09-01T06:19:56.059Z,100.00
2022-09-01T06:22:25.536Z,100.00
2022-09-01T06:24:59.496Z,100.00
2022-09-01T06:27:32.128Z,100.00
2022-09-01T06:30:00.627Z,100.00
2022-09-01T06:32:30.483Z,100.00
2022-09-01T06:35:00.610Z,100.00
2022-09-01T06:37:30.627Z,100.00
2022-09-01T06:40:03.754Z,100.00
2022-09-01T06:42:35.366Z,100.00
2022-09-01T06:45:03.940Z,100.00
2022-09-01T06:47:35.530Z,100.00
2022-09-01T06:50:03.951Z,100.00
2022-09-01T06:55:23.432Z,100.00
2022-09-01T06:58:13.942Z,100.00
2022-09-01T07:00:45.072Z,100.00
2022-09-01T07:03:17.846Z,100.00
2022-09-01T07:06:07.398Z,100.00
2022-09-01T07:17:34.766Z,100.00
2022-09-01T07:23:10.982Z,100.00
2022-09-01T07:26:04.331Z,100.00
2022-09-01T07:28:36.659Z,100.00
2022-09-01T07:39:51.260Z,100.00
2022-09-01T07:49:28.458Z,100.00
2022-09-01T07:51:50.212Z,100.00
2022-09-01T07:54:24.086Z,100.00
2022-09-01T07:56:55.699Z,100.00
2022-09-01T07:59:28.487Z,100.00
2022-09-01T08:02:22.976Z,100.00
2022-09-01T08:04:51.553Z,100.00
2022-09-01T08:07:20.662Z,100.00
2022-09-01T08:09:50.438Z,100.00
2022-09-01T08:12:18.913Z,100.00
2022-09-01T08:17:58.046Z,100.00
2022-09-01T08:20:30.560Z,100.00
2022-09-01T08:23:26.497Z,100.00
2022-09-01T08:25:56.425Z,100.00
2022-09-01T08:28:28.422Z,100.00
2022-09-01T08:30:59.464Z,100.00
2022-09-01T08:33:29.550Z,100.00
2022-09-01T08:35:57.870Z,100.00
2022-09-01T08:38:29.161Z,100.00
2022-09-01T08:40:59.962Z,100.00
2022-09-01T08:43:40.243Z,100.00
2022-09-01T08:46:13.868Z,100.00
2022-09-01T08:51:44.789Z,100.00
2022-09-01T08:54:29.353Z,100.00
2022-09-01T08:57:02.946Z,100.00
2022-09-01T08:59:51.488Z,100.00
2022-09-01T09:02:41.126Z,100.00
2022-09-01T09:05:24.759Z,100.00
2022-09-01T09:08:18.987Z,100.00
2022-09-01T09:10:54.037Z,100.00
2022-09-01T09:13:30.663Z,100.00
2022-09-01T09:16:08.724Z,100.00
2022-09-01T09:18:54.721Z,100.00
2022-09-01T09:21:27.238Z,100.00
2022-09-01T09:23:58.366Z,100.00
2022-09-01T09:26:27.441Z,96.33
2022-09-01T09:28:57.734Z,93.16
2022-09-01T09:31:30.214Z,96.73
2022-09-01T09:33:59.335Z,97.31
2022-09-01T09:36:33.101Z,89.73
2022-09-01T09:39:12.902Z,89.57
2022-09-01T09:41:42.324Z,75.67
2022-09-01T09:44:27.240Z,78.49
2022-09-01T09:46:55.651Z,74.48
2022-09-01T09:49:35.111Z,73.03
2022-09-01T09:52:19.310Z,77.82
2022-09-01T09:55:03.880Z,77.69
2022-09-01T09:57:35.556Z,67.75
2022-09-01T10:00:10.315Z,68.96
2022-09-01T10:02:44.909Z,62.00
2022-09-01T10:05:30.120Z,87.15
2022-09-01T10:07:59.613Z,84.37
2022-09-01T10:10:31.814Z,84.88
2022-09-01T10:13:02.105Z,81.66
2022-09-01T10:15:34.213Z,86.19
2022-09-01T10:18:29.069Z,88.30
2022-09-01T10:21:00.730Z,85.04
2022-09-01T10:23:31.749Z,72.26
2022-09-01T10:26:05.904Z,72.15
2022-09-01T10:28:35.745Z,68.53
2022-09-01T10:31:09.157Z,74.23
2022-09-01T10:33:39.104Z,87.43
2022-09-01T10:36:09.613Z,99.27
2022-09-01T10:38:39.253Z,91.78
2022-09-01T10:41:15.904Z,81.05
2022-09-01T10:43:45.887Z,86.48
2022-09-01T10:46:51.078Z,84.64
2022-09-01T10:49:38.991Z,77.09
2022-09-01T10:52:12.952Z,68.21
2022-09-01T10:54:55.841Z,89.50
2022-09-01T10:57:34.437Z,94.67
2022-09-01T11:03:56.482Z,100.00
2022-09-01T11:07:17.231Z,100.00
2022-09-01T11:10:38.324Z,100.00
2022-09-01T11:13:30.321Z,100.00
2022-09-01T11:19:34.101Z,100.00
2022-09-01T11:22:25.957Z,100.00
2022-09-01T11:25:13.925Z,100.00
2022-09-01T11:28:00.681Z,100.00
2022-09-01T11:30:39.263Z,100.00
2022-09-01T11:33:35.877Z,100.00
2022-09-01T11:36:07.865Z,100.00
2022-09-01T11:38:49.098Z,100.00
2022-09-01T11:41:34.015Z,100.00
2022-09-01T11:44:04.912Z,100.00
2022-09-01T11:46:34.940Z,100.00
2022-09-01T11:49:07.641Z,100.00
2022-09-01T11:51:47.873Z,100.00
2022-09-01T11:54:16.557Z,100.00
2022-09-01T11:56:45.009Z,100.00
2022-09-01T11:59:13.281Z,100.00
2022-09-01T12:01:41.820Z,100.00
2022-09-01T12:04:22.365Z,100.00
2022-09-01T12:06:58.144Z,100.00
2022-09-01T12:09:36.687Z,100.00
2022-09-01T12:12:06.552Z,100.00
2022-09-01T12:15:02.166Z,100.00
2022-09-01T12:17:24.177Z,97.12
2022-09-01T12:19:52.705Z,100.00
2022-09-01T12:22:24.341Z,100.00
2022-09-01T12:24:53.906Z,100.00
2022-09-01T12:27:24.007Z,100.00
2022-09-01T12:29:52.784Z,100.00
2022-09-01T12:32:21.354Z,100.00
2022-09-01T12:35:04.250Z,100.00
2022-09-01T12:37:37.044Z,100.00
2022-09-01T12:40:06.874Z,100.00
2022-09-01T12:42:41.159Z,100.00
2022-09-01T12:45:13.217Z,100.00
2022-09-01T12:47:51.365Z,100.00
2022-09-01T12:50:44.109Z,100.00
2022-09-01T12:53:36.670Z,100.00
2022-09-01T12:56:20.471Z,100.00
2022-09-01T12:58:52.255Z,100.00
2022-09-01T13:01:32.472Z,100.00
2022-09-01T13:04:25.839Z,100.00
2022-09-01T13:06:54.820Z,100.00
2022-09-01T13:09:24.572Z,100.00
2022-09-01T13:12:08.363Z,100.00
2022-09-01T13:14:36.687Z,100.00
2022-09-01T13:17:06.109Z,100.00
2022-09-01T13:19:42.492Z,100.00
2022-09-01T13:22:11.195Z,100.00
2022-09-01T13:24:43.779Z,100.00
2022-09-01T13:27:21.189Z,98.82
2022-09-01T13:29:50.384Z,90.09
2022-09-01T13:32:21.273Z,97.75
2022-09-01T13:34:51.929Z,83.27
2022-09-01T13:37:20.769Z,98.41
2022-09-01T13:39:51.483Z,94.88
2022-09-01T13:42:19.915Z,87.59
2022-09-01T13:44:52.363Z,81.12
2022-09-01T13:47:32.012Z,88.02
2022-09-01T13:50:11.160Z,83.84
2022-09-01T13:52:40.879Z,89.73
2022-09-01T13:55:13.155Z,92.08
2022-09-01T13:57:41.469Z,88.83
2022-09-01T14:00:12.359Z,91.13
2022-09-01T14:02:41.176Z,86.24
2022-09-01T14:05:10.494Z,85.52
2022-09-01T14:07:38.823Z,90.86
2022-09-01T14:10:08.988Z,87.96
2022-09-01T14:12:39.622Z,79.94
2022-09-01T14:15:11.652Z,81.89
2022-09-01T14:17:41.970Z,82.84
2022-09-01T14:20:14.515Z,100.00
2022-09-01T14:22:42.817Z,100.00
2022-09-01T14:25:12.176Z,93.10
2022-09-01T14:27:44.632Z,98.30
2022-09-01T14:30:16.733Z,100.00
2022-09-01T14:32:45.043Z,100.00
2022-09-01T14:35:13.784Z,100.00
2022-09-01T14:37:42.411Z,100.00
2022-09-01T14:40:16.953Z,100.00
2022-09-01T14:42:49.291Z,100.00
2022-09-01T14:45:19.672Z,100.00
2022-09-01T14:47:48.688Z,100.00
2022-09-01T14:50:22.922Z,95.60
2022-09-01T14:52:54.072Z,100.00
2022-09-01T14:55:23.481Z,100.00
2022-09-01T14:57:55.061Z,100.00
2022-09-01T15:00:25.083Z,100.00
2022-09-01T15:02:54.593Z,100.00
2022-09-01T15:05:23.784Z,92.92
2022-09-01T15:07:53.091Z,100.00
2022-09-01T15:10:25.804Z,86.71
2022-09-01T15:12:57.326Z,83.38
2022-09-01T15:15:26.047Z,87.79
2022-09-01T15:17:54.533Z,74.98
2022-09-01T15:20:40.877Z,74.62
2022-09-01T15:23:09.472Z,79.85
2022-09-01T15:25:37.774Z,81.68
2022-09-01T15:28:07.904Z,83.18
2022-09-01T15:30:37.029Z,76.60
2022-09-01T15:33:05.836Z,73.60
2022-09-01T15:35:34.304Z,81.48
2022-09-01T15:38:02.854Z,77.06
2022-09-01T15:40:31.211Z,74.12
2022-09-01T15:43:00.142Z,77.17
2022-09-01T15:45:30.325Z,73.75
2022-09-01T15:47:58.586Z,86.10
2022-09-01T15:50:28.221Z,80.02
2022-09-01T15:52:57.849Z,83.78
2022-09-01T15:55:28.337Z,84.67
2022-09-01T15:57:56.678Z,78.88
2022-09-01T16:00:27.584Z,80.29
2022-09-01T16:03:01.840Z,81.29
2022-09-01T16:05:30.604Z,89.93
2022-09-01T16:07:59.104Z,75.41
2022-09-01T16:10:27.630Z,71.82
2022-09-01T16:12:56.525Z,73.36
2022-09-01T16:15:26.416Z,80.93
2022-09-01T16:18:20.844Z,92.36
2022-09-01T16:20:58.059Z,85.80
2022-09-01T16:23:34.085Z,93.34
2022-09-01T16:26:02.429Z,94.65
2022-09-01T16:28:35.873Z,88.86
2022-09-01T16:31:08.080Z,92.98
2022-09-01T16:36:19.954Z,99.28
2022-09-01T16:38:50.150Z,94.54
2022-09-01T16:41:36.999Z,85.39
2022-09-01T16:44:14.330Z,77.53
2022-09-01T16:46:47.077Z,77.18
2022-09-01T16:49:22.997Z,86.94
2022-09-01T16:51:58.912Z,94.60
2022-09-01T16:54:35.438Z,93.38
2022-09-01T16:57:08.965Z,93.98
2022-09-01T16:59:42.310Z,100.00
2022-09-01T17:02:24.579Z,100.00
2022-09-01T17:04:58.175Z,99.62
2022-09-01T17:07:30.392Z,100.00
2022-09-01T17:10:04.595Z,100.00
2022-09-01T17:12:40.413Z,100.00
2022-09-01T17:15:11.626Z,87.46
2022-09-01T17:17:45.978Z,92.45
2022-09-01T17:20:16.301Z,87.10
2022-09-01T17:22:52.090Z,92.95
2022-09-01T17:25:29.147Z,92.71
2022-09-01T17:28:01.653Z,92.11
2022-09-01T17:30:32.236Z,93.53
2022-09-01T17:33:17.679Z,93.67
2022-09-01T17:36:01.079Z,92.54
2022-09-01T17:38:37.070Z,92.25
2022-09-01T17:41:16.127Z,90.27
2022-09-01T17:43:53.047Z,91.19
2022-09-01T17:46:27.416Z,80.38
2022-09-01T17:48:58.156Z,92.15
2022-09-01T17:51:32.469Z,97.95
2022-09-01T17:54:09.745Z,100.00
2022-09-01T17:56:43.774Z,100.00
2022-09-01T17:59:16.827Z,100.00
2022-09-01T18:01:52.715Z,100.00
2022-09-01T18:04:53.104Z,100.00
2022-09-01T18:07:46.044Z,100.00
2022-09-01T18:10:17.267Z,100.00
2022-09-01T18:12:46.549Z,100.00
2022-09-01T18:15:20.392Z,100.00
2022-09-01T18:17:53.676Z,100.00
2022-09-01T18:20:26.606Z,100.00
2022-09-01T18:23:02.682Z,100.00
2022-09-01T18:25:38.361Z,100.00
2022-09-01T18:28:06.613Z,100.00
2022-09-01T18:30:52.585Z,100.00
2022-09-01T18:33:28.139Z,100.00
2022-09-01T18:36:08.988Z,100.00
2022-09-01T18:38:44.457Z,100.00
2022-09-01T18:41:29.712Z,100.00
2022-09-01T18:44:05.661Z,100.00
2022-09-01T18:46:40.244Z,100.00
2022-09-01T18:49:15.926Z,100.00
2022-09-01T18:51:56.879Z,100.00
2022-09-01T18:54:31.405Z,100.00
2022-09-01T18:57:02.938Z,100.00
2022-09-01T18:59:44.471Z,96.97
2022-09-01T19:02:32.281Z,100.00
2022-09-01T19:05:04.031Z,100.00
2022-09-01T19:07:39.426Z,100.00
2022-09-01T19:10:16.309Z,100.00
2022-09-01T19:12:52.732Z,100.00
2022-09-01T19:15:26.188Z,100.00
2022-09-01T19:18:13.048Z,100.00
2022-09-01T19:20:47.712Z,100.00
2022-09-01T19:23:22.188Z,100.00
2022-09-01T19:25:55.509Z,100.00
2022-09-01T19:28:30.340Z,100.00
2022-09-01T19:31:11.501Z,100.00
2022-09-01T19:33:42.542Z,100.00
2022-09-01T19:36:14.043Z,100.00
2022-09-01T19:38:42.721Z,100.00
2022-09-01T19:41:16.868Z,100.00
2022-09-01T19:43:45.472Z,100.00
2022-09-01T19:46:23.812Z,100.00
2022-09-01T19:48:56.158Z,100.00
2022-09-01T19:51:29.528Z,100.00
2022-09-01T19:54:02.634Z,100.00
2022-09-01T19:56:36.571Z,100.00
2022-09-01T19:59:14.226Z,100.00
2022-09-01T20:01:48.304Z,100.00
2022-09-01T20:04:27.095Z,100.00
2022-09-01T20:06:58.393Z,100.00
2022-09-01T20:09:34.636Z,100.00
2022-09-01T20:12:11.226Z,100.00
2022-09-01T20:15:00.700Z,100.00
2022-09-01T20:17:33.899Z,100.00
2022-09-01T20:20:07.679Z,100.00
2022-09-01T20:22:39.969Z,100.00
2022-09-01T20:25:10.945Z,100.00
2022-09-01T20:27:47.915Z,100.00
2022-09-01T20:30:19.548Z,100.00
2022-09-01T20:32:53.250Z,100.00
2022-09-01T20:35:25.208Z,100.00
2022-09-01T20:37:57.492Z,100.00
2022-09-01T20:40:27.631Z,100.00
2022-09-01T20:43:08.436Z,100.00
2022-09-01T20:45:37.408Z,100.00
2022-09-01T20:48:07.531Z,100.00
2022-09-01T20:50:42.769Z,100.00
2022-09-01T20:53:24.982Z,100.00
2022-09-01T20:55:57.107Z,100.00
2022-09-01T20:58:35.666Z,100.00
2022-09-01T21:01:17.529Z,100.00
2022-09-01T21:03:54.627Z,100.00
2022-09-01T21:06:27.613Z,100.00
2022-09-01T21:09:02.014Z,100.00
2022-09-01T21:11:40.953Z,100.00
2022-09-01T21:14:21.539Z,100.00
2022-09-01T21:16:59.186Z,100.00
2022-09-01T21:19:34.545Z,100.00
2022-09-01T21:22:06.637Z,100.00
2022-09-01T21:24:35.396Z,100.00
2022-09-01T21:27:07.644Z,100.00
2022-09-01T21:29:46.960Z,100.00
2022-09-01T21:32:16.123Z,100.00
2022-09-01T21:34:45.035Z,100.00
2022-09-01T21:37:13.730Z,100.00
2022-09-01T21:39:41.923Z,100.00
2022-09-01T21:42:12.354Z,100.00
2022-09-01T21:44:42.527Z,100.00
2022-09-01T21:47:10.755Z,100.00
2022-09-01T21:49:38.941Z,100.00
2022-09-01T21:52:07.467Z,100.00
2022-09-01T21:54:35.880Z,100.00
2022-09-01T21:57:04.708Z,100.00
2022-09-01T21:59:33.307Z,100.00
2022-09-01T22:02:03.363Z,100.00
2022-09-01T22:04:33.118Z,100.00
2022-09-01T22:07:01.382Z,100.00
2022-09-01T22:09:29.682Z,100.00
2022-09-01T22:11:57.945Z,100.00
2022-09-01T22:14:27.949Z,100.00
2022-09-01T22:16:58.253Z,100.00
2022-09-01T22:19:29.642Z,100.00
2022-09-01T22:21:58.278Z,100.00
2022-09-01T22:24:26.466Z,100.00
2022-09-01T22:26:54.614Z,100.00
2022-09-01T22:29:23.369Z,100.00
2022-09-01T22:31:51.785Z,100.00
2022-09-01T22:34:20.096Z,100.00
2022-09-01T22:36:50.727Z,100.00
2022-09-01T22:39:21.860Z,100.00
2022-09-01T22:41:53.772Z,100.00
2022-09-01T22:44:21.940Z,100.00
2022-09-01T22:46:50.419Z,100.00
2022-09-01T22:49:18.658Z,100.00
2022-09-01T22:51:46.942Z,100.00
2022-09-01T22:54:16.504Z,100.00
2022-09-01T22:56:45.257Z,100.00
2022-09-01T22:59:15.890Z,100.00
2022-09-01T23:01:48.013Z,100.00
2022-09-01T23:04:17.356Z,100.00
2022-09-01T23:06:48.341Z,100.00
2022-09-01T23:09:18.793Z,100.00
2022-09-01T23:11:47.818Z,100.00
2022-09-01T23:14:16.083Z,100.00
2022-09-01T23:16:44.589Z,100.00
2022-09-01T23:19:14.021Z,100.00
2022-09-01T23:21:42.249Z,100.00
2022-09-01T23:24:10.830Z,100.00
2022-09-01T23:26:42.765Z,100.00
2022-09-01T23:29:11.953Z,100.00
2022-09-01T23:31:41.290Z,100.00
2022-09-01T23:34:10.072Z,100.00
2022-09-01T23:36:38.328Z,100.00
2022-09-01T23:39:07.080Z,100.00
2022-09-01T23:41:37.314Z,100.00
2022-09-01T23:44:10.508Z,100.00
2022-09-01T23:46:42.656Z,100.00
2022-09-01T23:49:12.023Z,100.00
2022-09-01T23:51:40.809Z,100.00
2022-09-01T23:54:09.165Z,100.00
2022-09-01T23:56:38.716Z,100.00
2022-09-01T23:59:08.835Z,100.00
